Knoxville, TN (37940)

4:42 PM EDT on August 31, 2015 (GMT -0400)
Kimberlin Heights | | Change Station
CLOSE
Current Station
Personal Weather Station
Location: Knoxville, TN
Elevation: 928 ft
Nearby Weather Stations

Elev 928 ft 35.95 °N, 83.88 °W | Updated 10 minutes ago

Partly Cloudy
Partly Cloudy
83.7 °F
Feels Like 86 °F
N
2.2
Wind Variable Wind from NW

Today
High -- | Low -- °F
--% Chance of Precip.
Yesterday
High -- | Low -- °F
Precip. -- in
7:06 AM 8:04 PM
Waning Gibbous, 94% visible
Pressure 30.06 in
Visibility 10.0 miles
Clouds Few 4100 ft
Scattered Clouds 25000 ft
Heat Index 86 °F
Dew Point 66 °F
Humidity 55%
Rainfall in
Snow Depth Not available.
UV 6 out of 12
Pollen 9.10 out of 12
Air Quality Not available.
Flu Activity Not available.
METAR KTYS 311953Z 35005KT 10SM FEW041 SCT250 30/16 A3010 RMK AO2 SLP180 T02940161 $
Pressure 30.06 in
Visibility 10.0 miles
Clouds Few 4100 ft
Scattered Clouds 25000 ft
Heat Index 86 °F
Dew Point 66 °F
Humidity 55%
Rainfall in
Snow Depth Not available.
UV 6 out of 12
Pollen 9.10 out of 12
Air Quality Not available.
Flu Activity Not available.
METAR KTYS 311953Z 35005KT 10SM FEW041 SCT250 30/16 A3010 RMK AO2 SLP180 T02940161 $

10-Day Weather Forecast

×

Almanac

Astronomy

Aug. 31, 2015 Rise Set
Actual Time
Civil Twilight
Nautical Twilight
Astronomical Twilight
Moon
Length of Visible Light
Length of Day
Tomorrow will be .
, % of the Moon is Illuminated

Today's Extremes

State Highs State Lows

Community

WunderPhotos

Upload Photos

1,851,356 photos uploaded!

WunderBlogs® & News

Nearby

Air Quality

  Air Quality AQ Index Pollutant
Not available.

Snow Depth

Station Depth Elevation

Earthquake Activity

City Distance Mag. Time & Date
Minimum magnitude displayed is 2.5.

Coastal Water Temperatures

Place Temperature

Stations

Nearby Weather Stations

Station Location Temp. Windchill Dew Point Humidity Wind Precip. Elev Updated Type